Time;durP1;ratioP1;P1;durP2;ratioP2;P2;SDS_P1;SDS_P2;PMS_P1;PMS_P2;Temp;Humidity;BMP_temperature;BMP_pressure;BME280_temperature;BME280_humidity;BME280_pressure;Samples;Min_cycle;Max_cycle;Signal;HPM_P1;HPM_P2
2021/12/22 00:01:26;;;;;;;28.42;21.73;;;;;;;;;;4944825;28;20122;-70
2021/12/22 00:03:52;;;;;;;27.42;20.92;;;;;;;;;;4938556;28;20077;-70
2021/12/22 00:06:19;;;;;;;25.63;20.48;;;;;;;;;;4943798;28;20071;-69
2021/12/22 00:08:45;;;;;;;28.35;22.20;;;;;;;;;;4944225;28;20047;-69
2021/12/22 00:11:11;;;;;;;24.98;21.20;;;;;;;;;;4938640;29;20605;-69
2021/12/22 00:13:37;;;;;;;19.60;17.55;;;;;;;;;;4947034;29;20045;-68
2021/12/22 00:16:03;;;;;;;27.05;18.45;;;;;;;;;;4937036;29;20086;-69
2021/12/22 00:18:29;;;;;;;21.40;18.05;;;;;;;;;;4942236;28;20046;-70
2021/12/22 00:20:54;;;;;;;27.60;19.63;;;;;;;;;;4943440;29;20521;-70
2021/12/22 00:23:20;;;;;;;25.88;21.33;;;;;;;;;;4942855;28;20044;-70
2021/12/22 00:25:46;;;;;;;28.40;21.50;;;;;;;;;;4940307;29;20071;-69
2021/12/22 00:28:11;;;;;;;29.73;21.60;;;;;;;;;;4945900;28;20046;-70
2021/12/22 00:30:39;;;;;;;28.45;20.25;;;;;;;;;;4946494;28;20030;-68
2021/12/22 00:33:07;;;;;;;29.10;22.77;;;;;;;;;;4938524;29;20094;-70
2021/12/22 00:35:46;;;;;;;26.08;20.55;;;;;;;;;;4937581;29;20587;-71
2021/12/22 00:38:15;;;;;;;31.17;20.75;;;;;;;;;;4949388;29;20123;-69
2021/12/22 00:40:41;;;;;;;27.67;21.45;;;;;;;;;;4947506;28;20086;-68
2021/12/22 00:43:07;;;;;;;29.42;21.95;;;;;;;;;;4939108;28;20499;-69
2021/12/22 00:45:35;;;;;;;36.50;23.23;;;;;;;;;;4935815;29;20373;-69
2021/12/22 00:48:08;;;;;;;28.02;21.30;;;;;;;;;;4941325;28;20058;-69
2021/12/22 00:50:35;;;;;;;33.13;21.73;;;;;;;;;;4939630;29;20287;-70
2021/12/22 00:53:01;;;;;;;27.70;20.70;;;;;;;;;;4944975;28;20399;-70
2021/12/22 00:55:27;;;;;;;31.27;22.30;;;;;;;;;;4948633;28;20094;-70
2021/12/22 00:57:52;;;;;;;35.50;21.73;;;;;;;;;;4950729;28;20074;-68
2021/12/22 01:00:21;;;;;;;33.50;23.40;;;;;;;;;;4947579;28;20495;-70
2021/12/22 01:02:47;;;;;;;31.38;23.58;;;;;;;;;;4940145;28;20047;-69
2021/12/22 01:05:15;;;;;;;35.53;24.48;;;;;;;;;;4933927;29;20427;-69
2021/12/22 01:07:42;;;;;;;35.58;21.92;;;;;;;;;;4948226;28;20320;-68
2021/12/22 01:10:09;;;;;;;34.53;22.45;;;;;;;;;;4942834;28;20035;-69
2021/12/22 01:12:35;;;;;;;28.52;22.65;;;;;;;;;;4937227;28;20036;-69
2021/12/22 01:15:01;;;;;;;32.15;22.42;;;;;;;;;;4937811;29;20039;-70
2021/12/22 01:17:34;;;;;;;31.15;21.92;;;;;;;;;;4944528;29;20058;-70
2021/12/22 01:20:07;;;;;;;26.45;20.27;;;;;;;;;;4939637;29;20040;-69
2021/12/22 01:22:47;;;;;;;24.77;20.85;;;;;;;;;;4935751;28;20078;-69
2021/12/22 01:25:15;;;;;;;33.58;20.98;;;;;;;;;;4946161;29;20042;-70
2021/12/22 01:27:43;;;;;;;30.88;21.67;;;;;;;;;;4944291;28;20081;-69
2021/12/22 01:30:15;;;;;;;25.00;19.42;;;;;;;;;;4948506;28;20441;-70
2021/12/22 01:32:42;;;;;;;25.58;20.25;;;;;;;;;;4944896;28;20280;-69
2021/12/22 01:35:10;;;;;;;21.42;18.90;;;;;;;;;;4946109;29;20498;-70
2021/12/22 01:37:37;;;;;;;22.77;17.83;;;;;;;;;;4937184;28;20036;-69
2021/12/22 01:40:04;;;;;;;36.10;23.10;;;;;;;;;;4941082;28;20058;-67
2021/12/22 01:42:30;;;;;;;32.30;20.83;;;;;;;;;;4947266;28;20061;-69
2021/12/22 01:45:52;;;;;;;23.83;20.00;;;;;;;;;;4936752;29;20032;-71
2021/12/22 01:50:51;;;;;;;29.10;22.30;;;;;;;;;;4945966;29;20037;-70
2021/12/22 01:53:22;;;;;;;26.65;21.83;;;;;;;;;;4939358;29;20057;-69
2021/12/22 01:56:05;;;;;;;26.38;19.88;;;;;;;;;;4932332;29;20040;-71
2021/12/22 01:58:40;;;;;;;27.25;19.65;;;;;;;;;;4941844;28;20038;-70
2021/12/22 02:01:06;;;;;;;28.55;20.88;;;;;;;;;;4945906;28;20090;-70
2021/12/22 02:03:33;;;;;;;31.67;21.17;;;;;;;;;;4938769;28;20044;-71
2021/12/22 02:05:59;;;;;;;27.50;21.35;;;;;;;;;;4936872;29;20043;-70
2021/12/22 02:08:24;;;;;;;20.10;17.48;;;;;;;;;;4946047;29;20046;-70
2021/12/22 02:10:50;;;;;;;23.30;18.88;;;;;;;;;;4935889;29;20067;-71
2021/12/22 02:13:23;;;;;;;27.05;20.05;;;;;;;;;;4931930;29;20451;-70
2021/12/22 02:15:49;;;;;;;28.65;20.92;;;;;;;;;;4935718;29;20035;-71
2021/12/22 02:18:20;;;;;;;26.23;21.38;;;;;;;;;;4944998;29;20513;-70
2021/12/22 02:20:48;;;;;;;23.55;20.75;;;;;;;;;;4934292;29;20042;-70
2021/12/22 02:23:14;;;;;;;26.80;21.17;;;;;;;;;;4937097;29;20031;-70
2021/12/22 02:25:49;;;;;;;27.65;21.98;;;;;;;;;;4937388;29;20058;-71
2021/12/22 02:28:21;;;;;;;25.58;20.23;;;;;;;;;;4944154;28;20058;-70
2021/12/22 02:30:47;;;;;;;24.10;20.40;;;;;;;;;;4948160;28;20065;-68
2021/12/22 02:33:33;;;;;;;26.80;20.48;;;;;;;;;;4940552;29;20415;-69
2021/12/22 02:38:51;;;;;;;22.00;18.13;;;;;;;;;;4943584;28;20047;-69
2021/12/22 02:41:20;;;;;;;26.88;20.70;;;;;;;;;;4936346;29;20046;-69
2021/12/22 02:43:49;;;;;;;25.42;19.55;;;;;;;;;;4933879;29;20515;-71
2021/12/22 02:46:20;;;;;;;24.48;19.63;;;;;;;;;;4942299;28;20043;-70
2021/12/22 02:48:47;;;;;;;31.42;21.10;;;;;;;;;;4939564;28;20040;-70
2021/12/22 02:51:13;;;;;;;19.75;17.10;;;;;;;;;;4939414;29;20035;-71
2021/12/22 02:56:54;;;;;;;26.85;20.08;;;;;;;;;;4940909;28;20051;-69
2021/12/22 03:00:22;;;;;;;31.20;22.10;;;;;;;;;;4947685;28;20122;-70
2021/12/22 03:02:21;;;;;;;28.08;20.52;;;;;;;;;;4940203;28;20200;-70
2021/12/22 03:04:56;;;;;;;27.20;20.58;;;;;;;;;;4943965;28;20487;-70
2021/12/22 03:07:25;;;;;;;31.05;23.92;;;;;;;;;;4932054;29;20087;-70
2021/12/22 03:10:13;;;;;;;;;;;;;;;;;;4936247;29;20074;-70
2021/12/22 03:12:40;;;;;;;22.30;17.75;;;;;;;;;;4940289;29;19922;-71
2021/12/22 03:15:08;;;;;;;23.05;16.50;;;;;;;;;;4938726;28;20051;-70
2021/12/22 03:17:33;;;;;;;23.25;18.58;;;;;;;;;;4939396;29;20070;-70
2021/12/22 03:19:59;;;;;;;22.73;18.30;;;;;;;;;;4940999;28;20039;-70
2021/12/22 03:22:25;;;;;;;25.50;19.98;;;;;;;;;;4944353;28;20130;-69
2021/12/22 03:24:52;;;;;;;24.38;18.25;;;;;;;;;;4941776;28;20035;-70
2021/12/22 03:27:19;;;;;;;26.10;20.33;;;;;;;;;;4947330;28;20063;-70
2021/12/22 03:29:45;;;;;;;29.25;19.77;;;;;;;;;;4939839;28;20043;-71
2021/12/22 03:32:18;;;;;;;22.88;18.77;;;;;;;;;;4943279;28;20063;-68
2021/12/22 03:34:44;;;;;;;26.25;20.35;;;;;;;;;;4943604;28;20107;-70
2021/12/22 03:37:11;;;;;;;27.95;20.58;;;;;;;;;;4946833;28;20119;-70
2021/12/22 03:39:37;;;;;;;31.63;18.67;;;;;;;;;;4941904;28;20138;-70
2021/12/22 03:42:06;;;;;;;27.98;21.20;;;;;;;;;;4940571;28;20035;-70
2021/12/22 03:44:32;;;;;;;29.33;18.95;;;;;;;;;;4950119;28;20419;-70
2021/12/22 03:47:00;;;;;;;22.95;19.52;;;;;;;;;;4936960;29;20547;-69
2021/12/22 03:49:26;;;;;;;25.17;19.70;;;;;;;;;;4937913;29;20040;-69
2021/12/22 03:51:52;;;;;;;30.00;20.98;;;;;;;;;;4942137;29;20031;-70
2021/12/22 03:54:17;;;;;;;24.10;18.92;;;;;;;;;;4948211;28;20042;-69
2021/12/22 03:56:43;;;;;;;31.23;20.30;;;;;;;;;;4944286;28;20128;-70
2021/12/22 03:59:09;;;;;;;24.52;18.75;;;;;;;;;;4948605;28;20043;-70
2021/12/22 04:01:36;;;;;;;29.60;20.50;;;;;;;;;;4941539;28;20035;-70
2021/12/22 04:04:08;;;;;;;29.08;22.25;;;;;;;;;;4957603;23;20466;-68
2021/12/22 04:06:34;;;;;;;26.52;18.80;;;;;;;;;;4951785;28;20049;-68
2021/12/22 04:09:00;;;;;;;25.90;19.58;;;;;;;;;;4951847;28;20034;-68
2021/12/22 04:11:25;;;;;;;36.08;19.42;;;;;;;;;;4959310;28;20553;-67
2021/12/22 04:13:51;;;;;;;36.42;18.77;;;;;;;;;;4951822;28;20494;-65
2021/12/22 04:16:16;;;;;;;32.35;21.42;;;;;;;;;;4951524;28;20032;-67
2021/12/22 04:18:42;;;;;;;32.35;21.35;;;;;;;;;;4949627;28;20490;-66
2021/12/22 04:21:08;;;;;;;26.13;18.95;;;;;;;;;;4951982;29;20046;-69
2021/12/22 04:23:33;;;;;;;30.55;21.77;;;;;;;;;;4951207;29;20042;-68
2021/12/22 04:26:00;;;;;;;23.05;19.77;;;;;;;;;;4950890;28;20032;-69
2021/12/22 04:28:26;;;;;;;25.55;20.77;;;;;;;;;;4955374;28;20039;-68
2021/12/22 04:30:51;;;;;;;32.45;22.73;;;;;;;;;;4950723;28;20039;-67
2021/12/22 04:33:19;;;;;;;42.08;26.80;;;;;;;;;;4951765;28;20046;-68
2021/12/22 04:35:46;;;;;;;34.53;23.35;;;;;;;;;;4953272;28;20045;-67
2021/12/22 04:38:12;;;;;;;30.00;22.80;;;;;;;;;;4955088;28;20039;-68
2021/12/22 04:40:38;;;;;;;28.58;23.17;;;;;;;;;;4951650;28;20046;-69
2021/12/22 04:43:03;;;;;;;32.72;22.75;;;;;;;;;;4951117;28;20481;-69
2021/12/22 04:45:29;;;;;;;30.65;21.23;;;;;;;;;;4949917;29;20067;-67
2021/12/22 04:47:55;;;;;;;35.03;23.13;;;;;;;;;;4952396;28;20039;-70
2021/12/22 04:50:22;;;;;;;25.70;20.38;;;;;;;;;;4951976;28;20446;-69
2021/12/22 04:55:19;;;;;;;29.70;23.23;;;;;;;;;;4956647;28;20391;-69
2021/12/22 04:57:45;;;;;;;27.67;23.05;;;;;;;;;;4953711;28;20054;-69
2021/12/22 05:00:14;;;;;;;24.13;19.95;;;;;;;;;;4950454;28;20043;-68
2021/12/22 05:02:40;;;;;;;27.35;20.95;;;;;;;;;;4957939;28;20046;-68
2021/12/22 05:05:06;;;;;;;27.88;19.63;;;;;;;;;;4955235;28;20031;-68
2021/12/22 05:07:32;;;;;;;30.48;19.42;;;;;;;;;;4951275;28;20434;-67
2021/12/22 05:09:57;;;;;;;28.02;21.25;;;;;;;;;;4950978;28;20050;-70
2021/12/22 05:12:23;;;;;;;27.50;19.25;;;;;;;;;;4954861;28;20055;-67
2021/12/22 05:14:50;;;;;;;37.55;19.80;;;;;;;;;;4954714;28;20078;-69
2021/12/22 05:17:25;;;;;;;26.80;17.35;;;;;;;;;;4951153;28;20039;-69
2021/12/22 05:19:51;;;;;;;22.02;19.75;;;;;;;;;;4951140;28;20079;-67
2021/12/22 05:22:17;;;;;;;22.75;17.73;;;;;;;;;;4955157;28;20038;-68
2021/12/22 05:24:42;;;;;;;23.63;19.40;;;;;;;;;;4951196;28;20579;-69
2021/12/22 05:27:11;;;;;;;25.10;20.63;;;;;;;;;;4951220;28;20047;-69
2021/12/22 05:29:38;;;;;;;25.05;19.13;;;;;;;;;;4950481;28;20038;-67
2021/12/22 05:32:05;;;;;;;27.38;20.95;;;;;;;;;;4950466;28;20049;-69
2021/12/22 05:34:30;;;;;;;18.58;16.58;;;;;;;;;;4948998;28;20090;-68
2021/12/22 05:36:56;;;;;;;27.35;19.50;;;;;;;;;;4950621;28;20039;-68
2021/12/22 05:39:22;;;;;;;21.42;18.02;;;;;;;;;;4947476;28;20613;-68
2021/12/22 05:41:47;;;;;;;27.15;20.92;;;;;;;;;;4952799;28;20506;-67
2021/12/22 05:44:13;;;;;;;25.42;19.10;;;;;;;;;;4950438;28;20084;-68
2021/12/22 05:46:39;;;;;;;25.70;20.67;;;;;;;;;;4953022;28;20078;-68
2021/12/22 05:49:05;;;;;;;22.58;19.38;;;;;;;;;;4951866;28;20046;-69
2021/12/22 05:51:33;;;;;;;28.83;21.35;;;;;;;;;;4952051;28;20046;-69
2021/12/22 05:53:58;;;;;;;25.48;21.67;;;;;;;;;;4948836;29;20031;-68
2021/12/22 05:56:26;;;;;;;23.15;19.92;;;;;;;;;;4950541;29;20186;-69
2021/12/22 05:58:52;;;;;;;29.20;19.95;;;;;;;;;;4951325;28;20499;-69
2021/12/22 06:01:18;;;;;;;23.60;18.83;;;;;;;;;;4949759;28;20046;-69
2021/12/22 06:03:44;;;;;;;28.35;21.33;;;;;;;;;;4952437;28;20039;-69
2021/12/22 06:06:11;;;;;;;24.83;19.60;;;;;;;;;;4954893;28;20034;-69
2021/12/22 06:08:36;;;;;;;21.58;19.23;;;;;;;;;;4951690;28;20134;-67
2021/12/22 06:11:02;;;;;;;23.63;19.23;;;;;;;;;;4950751;29;20178;-67
2021/12/22 06:13:28;;;;;;;33.17;19.73;;;;;;;;;;4949845;28;20035;-70
2021/12/22 06:15:53;;;;;;;22.10;19.58;;;;;;;;;;4952542;28;20035;-68
2021/12/22 06:18:19;;;;;;;21.45;19.08;;;;;;;;;;4951497;28;20050;-70
2021/12/22 06:20:45;;;;;;;22.92;18.55;;;;;;;;;;4949085;28;20642;-67
2021/12/22 06:23:11;;;;;;;27.52;20.98;;;;;;;;;;4953549;28;20070;-68
2021/12/22 06:25:37;;;;;;;27.13;18.38;;;;;;;;;;4951605;28;20047;-69
2021/12/22 06:28:03;;;;;;;25.88;19.80;;;;;;;;;;4950964;28;20043;-68
2021/12/22 06:30:29;;;;;;;21.77;18.35;;;;;;;;;;4947795;28;20047;-67
2021/12/22 06:32:55;;;;;;;22.90;19.17;;;;;;;;;;4946219;28;20035;-67
2021/12/22 06:35:20;;;;;;;24.13;19.55;;;;;;;;;;4952145;28;20039;-68
2021/12/22 06:37:48;;;;;;;24.75;17.45;;;;;;;;;;4950439;29;20043;-68
2021/12/22 06:40:15;;;;;;;15.63;14.27;;;;;;;;;;4949155;28;20046;-69
2021/12/22 06:42:42;;;;;;;25.38;22.13;;;;;;;;;;4950451;28;20065;-70
2021/12/22 06:45:09;;;;;;;36.92;25.23;;;;;;;;;;4950107;28;20093;-68
2021/12/22 06:47:35;;;;;;;26.42;21.10;;;;;;;;;;4949878;28;20043;-69
2021/12/22 06:50:02;;;;;;;29.13;19.88;;;;;;;;;;4948203;28;20063;-69
2021/12/22 06:52:28;;;;;;;25.23;20.65;;;;;;;;;;4950037;28;20491;-69
2021/12/22 06:54:54;;;;;;;27.15;21.63;;;;;;;;;;4950790;28;20089;-69
2021/12/22 06:57:21;;;;;;;29.50;19.63;;;;;;;;;;4951615;28;20487;-69
2021/12/22 06:59:47;;;;;;;12.95;12.07;;;;;;;;;;4947334;28;20043;-69
2021/12/22 07:02:13;;;;;;;18.55;16.10;;;;;;;;;;4949539;28;20126;-69
2021/12/22 07:04:39;;;;;;;27.58;18.52;;;;;;;;;;4950061;28;20046;-68
2021/12/22 07:07:05;;;;;;;30.52;18.88;;;;;;;;;;4950061;28;20122;-68
2021/12/22 07:09:31;;;;;;;26.42;19.63;;;;;;;;;;4951852;28;87893;-69
2021/12/22 07:11:57;;;;;;;28.17;20.92;;;;;;;;;;4961086;28;20026;-68
2021/12/22 07:14:23;;;;;;;23.80;20.40;;;;;;;;;;4959958;28;20044;-67
2021/12/22 07:16:49;;;;;;;26.80;18.70;;;;;;;;;;4947878;28;20066;-68
2021/12/22 07:19:14;;;;;;;28.77;22.05;;;;;;;;;;4952546;29;20510;-69
2021/12/22 07:21:40;;;;;;;21.70;17.35;;;;;;;;;;4952219;28;20042;-70
2021/12/22 07:24:07;;;;;;;20.13;18.08;;;;;;;;;;4951904;28;20459;-69
2021/12/22 07:26:33;;;;;;;17.42;15.63;;;;;;;;;;4952702;28;20062;-70
2021/12/22 07:28:59;;;;;;;27.23;23.48;;;;;;;;;;4953372;28;20031;-70
2021/12/22 07:31:25;;;;;;;24.10;19.92;;;;;;;;;;4952002;28;20130;-70
2021/12/22 07:34:00;;;;;;;34.97;23.67;;;;;;;;;;4952609;28;20039;-68
2021/12/22 07:36:25;;;;;;;20.90;17.63;;;;;;;;;;4951214;29;20047;-69
2021/12/22 07:39:01;;;;;;;32.25;19.77;;;;;;;;;;4967387;28;20081;-69
2021/12/22 07:41:27;;;;;;;23.67;18.73;;;;;;;;;;4949931;28;20050;-67
2021/12/22 07:43:53;;;;;;;21.73;18.13;;;;;;;;;;4952443;28;20035;-70
2021/12/22 07:46:19;;;;;;;22.02;17.85;;;;;;;;;;4952327;28;20035;-69
2021/12/22 07:48:45;;;;;;;25.52;19.75;;;;;;;;;;4952011;28;20038;-69
2021/12/22 07:51:11;;;;;;;24.63;19.05;;;;;;;;;;4951052;28;20051;-70
2021/12/22 07:53:37;;;;;;;21.48;17.67;;;;;;;;;;4952175;28;20035;-69
2021/12/22 07:56:03;;;;;;;21.83;18.90;;;;;;;;;;4952652;28;20200;-70
2021/12/22 07:58:29;;;;;;;24.15;20.58;;;;;;;;;;4951158;28;20039;-69
2021/12/22 08:00:56;;;;;;;26.52;18.25;;;;;;;;;;4948108;29;20047;-70
2021/12/22 08:03:22;;;;;;;31.58;19.88;;;;;;;;;;4952206;28;20054;-68
2021/12/22 08:05:48;;;;;;;26.63;21.52;;;;;;;;;;4952114;28;20043;-70
2021/12/22 08:08:14;;;;;;;34.20;23.77;;;;;;;;;;4951006;28;20254;-70
2021/12/22 08:10:41;;;;;;;40.42;23.52;;;;;;;;;;4951273;29;20505;-70
2021/12/22 08:13:07;;;;;;;32.85;24.45;;;;;;;;;;4954048;28;20502;-69
2021/12/22 08:15:32;;;;;;;37.75;23.17;;;;;;;;;;4935037;28;20045;-70
2021/12/22 08:17:58;;;;;;;22.90;18.65;;;;;;;;;;4947305;28;20031;-70
2021/12/22 08:20:24;;;;;;;27.20;19.15;;;;;;;;;;4945912;28;20548;-70
2021/12/22 08:22:50;;;;;;;22.13;19.08;;;;;;;;;;4946803;28;20046;-70
2021/12/22 08:25:16;;;;;;;28.95;18.98;;;;;;;;;;4950923;28;20410;-70
2021/12/22 08:27:42;;;;;;;22.48;17.50;;;;;;;;;;4954346;28;20035;-70
2021/12/22 08:30:08;;;;;;;29.92;20.92;;;;;;;;;;4949216;28;20043;-69
2021/12/22 08:32:34;;;;;;;26.13;19.30;;;;;;;;;;4946509;28;20122;-70
2021/12/22 08:35:02;;;;;;;25.05;19.80;;;;;;;;;;4949646;28;20422;-70
2021/12/22 08:40:17;;;;;;;24.73;19.48;;;;;;;;;;4947573;28;20034;-70
2021/12/22 08:42:44;;;;;;;29.75;20.70;;;;;;;;;;4947920;28;20042;-69
2021/12/22 08:45:11;;;;;;;23.98;21.38;;;;;;;;;;4948409;29;20035;-70
2021/12/22 08:47:37;;;;;;;28.05;22.45;;;;;;;;;;4949187;28;20228;-68
2021/12/22 08:50:05;;;;;;;26.33;20.40;;;;;;;;;;4947736;28;20045;-69
2021/12/22 08:52:31;;;;;;;26.80;20.27;;;;;;;;;;4946749;28;20066;-67
2021/12/22 08:54:56;;;;;;;27.88;21.13;;;;;;;;;;4950290;28;20035;-72
2021/12/22 08:57:22;;;;;;;21.63;18.83;;;;;;;;;;4950218;28;20158;-69
2021/12/22 08:59:48;;;;;;;25.40;20.67;;;;;;;;;;4948689;28;20057;-71
2021/12/22 09:02:13;;;;;;;24.45;20.30;;;;;;;;;;4947247;28;20031;-70
2021/12/22 09:04:39;;;;;;;25.10;19.08;;;;;;;;;;4948282;29;20470;-71
2021/12/22 09:07:05;;;;;;;25.48;19.92;;;;;;;;;;4948635;28;20031;-71
2021/12/22 09:09:31;;;;;;;25.33;19.58;;;;;;;;;;4948461;28;20032;-70
2021/12/22 09:11:56;;;;;;;24.60;19.55;;;;;;;;;;4947823;28;20039;-69
2021/12/22 09:14:23;;;;;;;24.27;20.95;;;;;;;;;;4949089;28;20178;-70
2021/12/22 09:16:49;;;;;;;23.48;19.20;;;;;;;;;;4950091;28;20050;-69
2021/12/22 09:19:15;;;;;;;23.95;19.67;;;;;;;;;;4948718;28;20039;-70
2021/12/22 09:21:41;;;;;;;21.88;19.50;;;;;;;;;;4950561;28;20446;-70
2021/12/22 09:24:07;;;;;;;24.33;19.42;;;;;;;;;;4949821;28;20767;-70
2021/12/22 09:26:33;;;;;;;24.08;20.50;;;;;;;;;;4948492;28;20039;-71
2021/12/22 09:28:59;;;;;;;26.25;20.05;;;;;;;;;;4950135;28;20127;-70
2021/12/22 09:31:25;;;;;;;21.98;19.60;;;;;;;;;;4949324;28;20037;-70
2021/12/22 09:33:51;;;;;;;22.27;19.52;;;;;;;;;;4950336;28;20035;-70
2021/12/22 09:36:17;;;;;;;22.75;19.40;;;;;;;;;;4947945;28;20255;-70
2021/12/22 09:38:43;;;;;;;24.05;19.58;;;;;;;;;;4949966;28;20062;-70
2021/12/22 09:41:11;;;;;;;26.63;20.73;;;;;;;;;;4949495;29;20097;-70
2021/12/22 09:43:37;;;;;;;26.33;20.02;;;;;;;;;;4949699;28;20054;-70
2021/12/22 09:46:08;;;;;;;29.15;20.67;;;;;;;;;;4949936;28;20027;-72
2021/12/22 09:49:06;;;;;;;29.50;22.00;;;;;;;;;;4951883;28;20046;-70
2021/12/22 09:53:51;;;;;;;52.75;27.92;;;;;;;;;;4948299;28;20039;-70
2021/12/22 09:56:20;;;;;;;30.58;23.23;;;;;;;;;;4950068;28;20058;-70
2021/12/22 09:58:48;;;;;;;54.63;30.15;;;;;;;;;;4949010;28;20588;-69
2021/12/22 10:01:15;;;;;;;38.28;25.88;;;;;;;;;;4945885;28;20039;-69
2021/12/22 10:03:40;;;;;;;39.80;25.70;;;;;;;;;;4947560;28;20067;-70
2021/12/22 10:06:06;;;;;;;22.90;20.33;;;;;;;;;;4949563;28;20108;-69
2021/12/22 10:08:34;;;;;;;24.13;19.65;;;;;;;;;;4944445;28;20038;-70
2021/12/22 10:11:10;;;;;;;23.92;20.60;;;;;;;;;;4942657;29;20035;-70
2021/12/22 10:13:44;;;;;;;27.73;20.70;;;;;;;;;;4948193;29;20081;-69
2021/12/22 10:16:18;;;;;;;24.55;19.98;;;;;;;;;;4950499;28;20038;-70
2021/12/22 10:18:44;;;;;;;23.20;19.52;;;;;;;;;;4950143;28;20066;-70
2021/12/22 10:21:14;;;;;;;27.33;20.17;;;;;;;;;;4949285;28;20118;-70
2021/12/22 10:23:46;;;;;;;24.63;21.77;;;;;;;;;;4948975;28;20114;-69
2021/12/22 10:26:23;;;;;;;29.08;21.05;;;;;;;;;;4947834;28;20384;-69
2021/12/22 10:28:56;;;;;;;24.00;19.55;;;;;;;;;;4947458;28;20060;-70
2021/12/22 10:31:32;;;;;;;27.25;21.65;;;;;;;;;;4947354;28;20047;-71
2021/12/22 10:34:00;;;;;;;25.77;22.15;;;;;;;;;;4953863;28;20039;-69
2021/12/22 10:36:26;;;;;;;28.35;22.20;;;;;;;;;;4949929;28;20054;-70
2021/12/22 10:39:00;;;;;;;24.17;20.98;;;;;;;;;;4948392;28;20491;-69
2021/12/22 10:41:31;;;;;;;26.00;20.90;;;;;;;;;;4949460;28;20094;-70
2021/12/22 10:43:57;;;;;;;26.08;20.55;;;;;;;;;;4951342;28;20031;-70
2021/12/22 10:46:30;;;;;;;29.23;21.67;;;;;;;;;;4952236;28;20046;-69
2021/12/22 10:49:15;;;;;;;29.48;22.70;;;;;;;;;;4954711;28;20485;-69
2021/12/22 10:51:44;;;;;;;28.67;21.95;;;;;;;;;;4952884;29;20038;-69
2021/12/22 10:54:12;;;;;;;27.33;21.67;;;;;;;;;;4952101;28;20398;-71
2021/12/22 10:56:40;;;;;;;25.27;21.33;;;;;;;;;;4953833;29;20031;-70
2021/12/22 10:59:09;;;;;;;32.78;23.15;;;;;;;;;;4955948;28;20298;-69
2021/12/22 11:01:37;;;;;;;28.27;22.00;;;;;;;;;;4953012;28;20035;-70
2021/12/22 11:04:18;;;;;;;29.27;22.27;;;;;;;;;;4953455;28;20050;-70
2021/12/22 11:06:44;;;;;;;27.65;21.65;;;;;;;;;;4959615;28;20125;-69
2021/12/22 11:09:14;;;;;;;26.23;21.30;;;;;;;;;;4955090;28;20039;-70
2021/12/22 11:11:41;;;;;;;24.90;19.42;;;;;;;;;;4950594;28;20035;-69
2021/12/22 11:14:11;;;;;;;26.00;22.25;;;;;;;;;;4951243;28;20485;-69
2021/12/22 11:16:50;;;;;;;28.40;22.52;;;;;;;;;;4958766;28;20074;-69
2021/12/22 11:19:16;;;;;;;27.40;22.52;;;;;;;;;;4957059;28;20042;-71
2021/12/22 11:22:09;;;;;;;36.65;27.02;;;;;;;;;;4955782;28;20035;-70
2021/12/22 11:24:39;;;;;;;26.48;20.95;;;;;;;;;;4960300;28;20494;-71
2021/12/22 11:27:06;;;;;;;23.75;21.25;;;;;;;;;;4955674;28;20042;-70
2021/12/22 11:29:34;;;;;;;28.88;22.70;;;;;;;;;;4954900;28;20134;-71
2021/12/22 11:32:03;;;;;;;27.77;21.58;;;;;;;;;;4953647;28;20046;-70
2021/12/22 11:34:30;;;;;;;41.30;27.75;;;;;;;;;;4956842;28;20031;-70
2021/12/22 11:36:56;;;;;;;24.83;20.70;;;;;;;;;;4964895;28;20050;-71
2021/12/22 11:39:22;;;;;;;26.60;21.80;;;;;;;;;;4952549;28;20036;-70
2021/12/22 11:41:56;;;;;;;26.90;23.42;;;;;;;;;;4955679;29;20070;-70
2021/12/22 11:44:24;;;;;;;26.98;20.70;;;;;;;;;;4951997;28;20774;-70
2021/12/22 11:46:53;;;;;;;30.02;23.77;;;;;;;;;;4964229;28;20257;-70
2021/12/22 11:49:20;;;;;;;25.60;22.45;;;;;;;;;;4956730;28;20491;-70
2021/12/22 11:51:45;;;;;;;23.42;20.60;;;;;;;;;;4955874;28;20081;-70
2021/12/22 11:54:12;;;;;;;25.98;20.90;;;;;;;;;;4955037;28;20106;-70
2021/12/22 11:56:45;;;;;;;23.92;21.33;;;;;;;;;;4953294;28;20114;-71
2021/12/22 11:59:36;;;;;;;24.52;20.17;;;;;;;;;;4950195;28;20058;-70
2021/12/22 12:02:24;;;;;;;22.90;20.63;;;;;;;;;;4948926;29;20520;-70
2021/12/22 12:04:53;;;;;;;22.60;20.17;;;;;;;;;;4945036;29;20525;-70
2021/12/22 12:07:41;;;;;;;24.13;20.55;;;;;;;;;;4949459;28;20301;-70
2021/12/22 12:10:32;;;;;;;23.17;20.77;;;;;;;;;;4948308;28;20051;-70
2021/12/22 12:13:04;;;;;;;25.10;21.52;;;;;;;;;;4949915;29;20603;-69
2021/12/22 12:21:55;;;;;;;21.73;19.45;;;;;;;;;;4950056;28;20050;-69
2021/12/22 12:24:45;;;;;;;22.30;17.88;;;;;;;;;;4950582;28;20122;-69
2021/12/22 12:27:30;;;;;;;20.17;17.98;;;;;;;;;;4953473;28;20054;-69
2021/12/22 12:29:59;;;;;;;23.35;20.05;;;;;;;;;;4947645;28;20070;-71
2021/12/22 12:32:40;;;;;;;;;;;;;;;;;;4950450;28;20407;-69
2021/12/22 12:35:18;;;;;;;24.00;20.05;;;;;;;;;;4953538;28;19969;-70
2021/12/22 12:38:05;;;;;;;23.27;18.95;;;;;;;;;;4951096;28;20062;-71
2021/12/22 12:41:16;;;;;;;21.10;18.73;;;;;;;;;;4949360;28;20514;-71
2021/12/22 12:46:39;;;;;;;23.13;19.48;;;;;;;;;;4961434;28;20043;-70
2021/12/22 12:49:07;;;;;;;23.25;20.38;;;;;;;;;;4884128;29;20051;-69
2021/12/22 12:51:35;;;;;;;23.52;18.95;;;;;;;;;;4890280;29;20885;-69
2021/12/22 12:54:07;;;;;;;23.05;19.85;;;;;;;;;;4899845;29;20140;-69
2021/12/22 12:56:35;;;;;;;24.92;20.92;;;;;;;;;;4893160;29;20595;-69
2021/12/22 12:59:16;;;;;;;22.37;19.77;;;;;;;;;;4890857;29;20076;-70
2021/12/22 13:01:47;;;;;;;23.75;20.65;;;;;;;;;;4888896;29;20044;-70
2021/12/22 13:04:39;;;;;;;25.33;20.17;;;;;;;;;;4897209;29;20055;-69
2021/12/22 13:07:20;;;;;;;26.77;20.85;;;;;;;;;;4883629;29;20053;-70
2021/12/22 13:09:53;;;;;;;27.48;20.73;;;;;;;;;;4890560;29;20203;-69
2021/12/22 13:17:52;;;;;;;26.38;19.52;;;;;;;;;;4890366;29;20048;-70
2021/12/22 13:20:22;;;;;;;25.87;20.97;;;;;;;;;;4889725;29;20053;-69
2021/12/22 13:22:53;;;;;;;24.88;19.77;;;;;;;;;;4890367;29;20056;-69
2021/12/22 13:25:28;;;;;;;26.15;21.13;;;;;;;;;;4916499;29;20507;-70
2021/12/22 13:28:01;;;;;;;31.00;20.30;;;;;;;;;;4952256;28;20479;-69
2021/12/22 13:30:32;;;;;;;24.60;20.10;;;;;;;;;;4948584;28;20154;-70
2021/12/22 13:33:03;;;;;;;30.00;22.23;;;;;;;;;;4945776;29;20058;-68
2021/12/22 13:35:49;;;;;;;24.83;19.73;;;;;;;;;;4947755;28;20049;-71
2021/12/22 13:38:18;;;;;;;26.67;19.70;;;;;;;;;;4953441;28;20418;-69
2021/12/22 13:40:44;;;;;;;26.33;21.00;;;;;;;;;;4949107;28;20410;-68
2021/12/22 13:43:35;;;;;;;38.17;30.15;;;;;;;;;;4949510;29;20498;-69
2021/12/22 13:46:09;;;;;;;26.33;20.17;;;;;;;;;;4948677;28;20112;-70
2021/12/22 13:48:56;;;;;;;28.00;20.48;;;;;;;;;;4951100;28;20059;-69
2021/12/22 13:51:37;;;;;;;26.63;19.95;;;;;;;;;;4938535;29;20518;-70
2021/12/22 13:54:09;;;;;;;23.13;19.63;;;;;;;;;;4949016;29;20043;-69
2021/12/22 13:56:35;;;;;;;26.40;20.85;;;;;;;;;;4953592;28;20035;-70
2021/12/22 13:59:04;;;;;;;25.45;21.08;;;;;;;;;;4950647;28;20043;-69
2021/12/22 14:01:39;;;;;;;26.40;20.83;;;;;;;;;;4949795;28;20130;-69
2021/12/22 14:04:16;;;;;;;26.48;21.42;;;;;;;;;;4944808;28;20389;-71
2021/12/22 14:07:04;;;;;;;25.40;20.20;;;;;;;;;;4944932;28;20044;-70
2021/12/22 14:09:30;;;;;;;24.65;19.13;;;;;;;;;;4940965;28;20078;-69
2021/12/22 14:12:01;;;;;;;26.20;19.95;;;;;;;;;;4944007;28;20549;-68
2021/12/22 14:14:32;;;;;;;26.13;19.70;;;;;;;;;;4941563;28;20042;-70
2021/12/22 14:17:07;;;;;;;24.08;18.77;;;;;;;;;;4956521;28;20062;-70
2021/12/22 14:19:38;;;;;;;24.73;19.23;;;;;;;;;;4946595;28;20027;-70
2021/12/22 14:22:12;;;;;;;24.27;19.67;;;;;;;;;;4939254;28;20038;-69
2021/12/22 14:24:42;;;;;;;22.85;17.77;;;;;;;;;;4942043;28;20042;-70
2021/12/22 14:27:12;;;;;;;24.10;18.98;;;;;;;;;;4958173;28;20037;-70
2021/12/22 14:29:47;;;;;;;24.52;18.67;;;;;;;;;;4945625;28;20459;-69
2021/12/22 14:32:24;;;;;;;24.20;20.05;;;;;;;;;;4947622;28;20050;-69
2021/12/22 14:35:08;;;;;;;24.27;19.67;;;;;;;;;;4947092;28;20047;-69
2021/12/22 14:37:36;;;;;;;26.13;19.45;;;;;;;;;;4948662;28;20062;-69
2021/12/22 14:40:13;;;;;;;32.83;21.38;;;;;;;;;;4944564;28;20031;-70
2021/12/22 14:42:38;;;;;;;24.95;19.00;;;;;;;;;;4950740;28;20095;-69
2021/12/22 14:45:31;;;;;;;32.22;25.20;;;;;;;;;;4948321;28;20055;-69
2021/12/22 14:48:01;;;;;;;29.70;22.88;;;;;;;;;;4945499;28;20035;-69
2021/12/22 14:50:26;;;;;;;28.73;20.00;;;;;;;;;;4948464;28;20113;-69
2021/12/22 14:52:57;;;;;;;22.92;18.50;;;;;;;;;;4938142;28;20514;-70
2021/12/22 14:55:42;;;;;;;30.40;20.15;;;;;;;;;;4937956;28;20039;-69
2021/12/22 14:58:09;;;;;;;28.10;20.00;;;;;;;;;;4944755;28;20051;-69
2021/12/22 15:00:37;;;;;;;31.08;19.13;;;;;;;;;;4945078;29;20499;-70
2021/12/22 15:03:03;;;;;;;30.55;19.52;;;;;;;;;;4944413;28;20182;-69